Norwegian Dawn — C6FT7 — position and weather

sailwx.info

Track history (hours):
 
Tides and Currents Weather Stations Pressure Air Temp Water Temp Dewpoint Dewpoint Depression Visibility Wind Speed Wind Dir Waves Ship Positions

Norwegian Dawn

Operator: Norwegian Cruise Line

Last reported at 2019-Aug-18 06:58 UTC. Time now 2019-Aug-20 10:45 UTC.
Position N 36°55' W 074°32'.

Type: Ship. MMSI: 311307000.

Date/timePositionNaut miles runAvg speedWind from/ knotsBaromVisibWave heightAir tempDewpointWater temp
2019-Aug-18 06:58N 36°55' W 074°32'1122.3
2019-Aug-18 06:28N 37°06' W 074°29'1922.4
2019-Aug-18 05:36N 37°25' W 074°25'322.2
2019-Aug-18 05:29N 37°27' W 074°24'1322.3
2019-Aug-18 04:53N 37°40' W 074°21'822.3
2019-Aug-18 04:31N 37°49' W 074°19'1122.2
2019-Aug-18 04:01N 37°60' W 074°17'1122.0
2019-Aug-18 03:31N 38°10' W 074°14'1121.7
2019-Aug-18 03:00N 38°21' W 074°12'1121.8
2019-Aug-18 02:30N 38°32' W 074°09'1121.5
2019-Aug-18 02:00N 38°42' W 074°07'1121.2
2019-Aug-18 01:30N 38°53' W 074°05'1021.0
2019-Aug-18 01:00N 39°03' W 074°02'1121.5
2019-Aug-18 00:30N 39°14' W 073°60'1121.1
2019-Aug-18 00:01N 39°24' W 073°57'1121.4
2019-Aug-17 23:31N 39°35' W 073°55'1121.4
2019-Aug-17 23:01N 39°45' W 073°52'1121.6
2019-Aug-17 22:30N 39°56' W 073°51'1121.9
2019-Aug-17 22:01N 40°07' W 073°50'1121.5
2019-Aug-17 21:30N 40°18' W 073°49'918.5
2019-Aug-17 21:00N 40°27' W 073°50'612.8
2019-Aug-17 20:30N 40°30' W 073°57'612.6
2019-Aug-17 20:00N 40°35' W 074°02'714.9
2019-Aug-17 19:30N 40°43' W 074°02'3 6.9
2019-Aug-17 19:00N 40°46' W 073°60'0 0.0
2019-Aug-17 18:21N 40°46' W 073°60'0 0.0
2019-Aug-17 17:27N 40°46' W 073°60'0 0.0
2019-Aug-17 16:21N 40°46' W 073°60'0 0.0
2019-Aug-17 15:51N 40°46' W 073°60'0 0.0
2019-Aug-17 15:21N 40°46' W 073°60'0 0.0
2019-Aug-17 14:21N 40°46' W 073°60'0 0.0
2019-Aug-17 14:00N 40°46' W 073°60'0 0.0
2019-Aug-17 13:06N 40°46' W 073°60'0 0.0
2019-Aug-17 13:00N 40°46' W 073°60'0 0.0
2019-Aug-17 12:07N 40°46' W 073°60'0 0.0
2019-Aug-17 12:00N 40°46' W 073°60'1 1.7
2019-Aug-17 11:30N 40°45' W 074°01'612.0
2019-Aug-17 11:00N 40°40' W 074°03'815.5
2019-Aug-17 10:30N 40°32' W 074°01'1019.4
2019-Aug-17 10:00N 40°27' W 073°50'813.9
2019-Aug-17 09:25N 40°20' W 073°46'1018.0
2019-Aug-17 08:51N 40°10' W 073°45'814.1
2019-Aug-17 08:19N 40°02' W 073°44'514.6
2019-Aug-17 08:00N 39°58' W 073°44'714.7
2019-Aug-17 07:30N 39°50' W 073°43'714.9
2019-Aug-17 07:01N 39°43' W 073°42'714.4
2019-Aug-17 06:30N 39°35' W 073°43'714.2
2019-Aug-17 06:00N 39°29' W 073°44'914.3
2019-Aug-17 05:21N 39°19' W 073°45'714.5
2019-Aug-17 04:54N 39°13' W 073°46'614.4
2019-Aug-17 04:30N 39°07' W 073°48'814.3
2019-Aug-17 03:58N 38°60' W 073°49'714.3
2019-Aug-17 03:30N 38°53' W 073°50'1114.5
2019-Aug-17 02:43N 38°42' W 073°53'314.7
2019-Aug-17 02:30N 38°39' W 073°54'714.6
2019-Aug-17 02:00N 38°31' W 073°54'1414.8
2019-Aug-17 01:04N 38°18' W 073°57'  
2019-Aug-13 07:52N 26°40' W 079°17'28910.0
2019-Aug-12 03:06N 31°28' W 079°38'53420.3
2019-Aug-11 00:51N 39°06' W 074°02'821.0
2019-Aug-11 00:29N 39°13' W 073°60'1021.3
2019-Aug-11 00:00N 39°24' W 073°57'1121.4
2019-Aug-10 23:30N 39°34' W 073°55'1121.5
2019-Aug-10 23:00N 39°44' W 073°52'1121.5
2019-Aug-10 22:30N 39°55' W 073°51'2621.9
2019-Aug-10 21:19N 40°21' W 073°49'815.0
2019-Aug-10 20:49N 40°28' W 073°52'517.6
2019-Aug-10 20:30N 40°31' W 073°59'816.3
2019-Aug-10 20:00N 40°38' W 074°03'612.4
2019-Aug-10 19:30N 40°44' W 074°01'2 0.3
2019-Aug-10 11:30N 40°46' W 073°60'1 1.9
2019-Aug-10 11:00N 40°45' W 074°01'511.0
2019-Aug-10 10:30N 40°40' W 074°03'714.8
2019-Aug-10 10:00N 40°33' W 074°02'917.9
2019-Aug-10 09:30N 40°28' W 073°51'712.9
2019-Aug-10 09:00N 40°23' W 073°47'2315.4
2019-Aug-10 07:31N 39°60' W 073°44'015.9
2019-Aug-10 07:30N 39°60' W 073°44'918.4
2019-Aug-10 07:00N 39°50' W 073°43'918.6
2019-Aug-10 06:30N 39°41' W 073°42'918.6
2019-Aug-10 06:01N 39°32' W 073°43'1018.7
2019-Aug-10 05:30N 39°23' W 073°45'918.8
2019-Aug-10 05:00N 39°13' W 073°47'918.1
2019-Aug-10 04:30N 39°04' W 073°48'714.4
2019-Aug-10 04:00N 38°57' W 073°50'3714.6
2019-Aug-10 01:27N 38°20' W 073°57'  
Track history (hours):
 
Tides and Currents Weather Stations Pressure Air Temp Water Temp Dewpoint Dewpoint Depression Visibility Wind Speed Wind Dir Waves Ship Positions

Norwegian Dawn

Operator: Norwegian Cruise Line

Last reported at 2019-Aug-18 06:58 UTC. Time now 2019-Aug-20 10:45 UTC.
Position N 36°55' W 074°32'.

Type: Ship. MMSI: 311307000.

Date/timePositionNaut miles runAvg speedWind from/ knotsBaromVisibWave heightAir tempDewpointWater temp
2019-Aug-18 06:58N 36°55' W 074°32'1122.3
2019-Aug-18 06:28N 37°06' W 074°29'1922.4
2019-Aug-18 05:36N 37°25' W 074°25'322.2
2019-Aug-18 05:29N 37°27' W 074°24'1322.3
2019-Aug-18 04:53N 37°40' W 074°21'822.3
2019-Aug-18 04:31N 37°49' W 074°19'1122.2
2019-Aug-18 04:01N 37°60' W 074°17'1122.0
2019-Aug-18 03:31N 38°10' W 074°14'1121.7
2019-Aug-18 03:00N 38°21' W 074°12'1121.8
2019-Aug-18 02:30N 38°32' W 074°09'1121.5
2019-Aug-18 02:00N 38°42' W 074°07'1121.2
2019-Aug-18 01:30N 38°53' W 074°05'1021.0
2019-Aug-18 01:00N 39°03' W 074°02'1121.5
2019-Aug-18 00:30N 39°14' W 073°60'1121.1
2019-Aug-18 00:01N 39°24' W 073°57'1121.4
2019-Aug-17 23:31N 39°35' W 073°55'1121.4
2019-Aug-17 23:01N 39°45' W 073°52'1121.6
2019-Aug-17 22:30N 39°56' W 073°51'1121.9
2019-Aug-17 22:01N 40°07' W 073°50'1121.5
2019-Aug-17 21:30N 40°18' W 073°49'918.5
2019-Aug-17 21:00N 40°27' W 073°50'612.8
2019-Aug-17 20:30N 40°30' W 073°57'612.6
2019-Aug-17 20:00N 40°35' W 074°02'714.9
2019-Aug-17 19:30N 40°43' W 074°02'3 6.9
2019-Aug-17 19:00N 40°46' W 073°60'0 0.0
2019-Aug-17 18:21N 40°46' W 073°60'0 0.0
2019-Aug-17 17:27N 40°46' W 073°60'0 0.0
2019-Aug-17 16:21N 40°46' W 073°60'0 0.0
2019-Aug-17 15:51N 40°46' W 073°60'0 0.0
2019-Aug-17 15:21N 40°46' W 073°60'0 0.0
2019-Aug-17 14:21N 40°46' W 073°60'0 0.0
2019-Aug-17 14:00N 40°46' W 073°60'0 0.0
2019-Aug-17 13:06N 40°46' W 073°60'0 0.0
2019-Aug-17 13:00N 40°46' W 073°60'0 0.0
2019-Aug-17 12:07N 40°46' W 073°60'0 0.0
2019-Aug-17 12:00N 40°46' W 073°60'1 1.7
2019-Aug-17 11:30N 40°45' W 074°01'612.0
2019-Aug-17 11:00N 40°40' W 074°03'815.5
2019-Aug-17 10:30N 40°32' W 074°01'1019.4
2019-Aug-17 10:00N 40°27' W 073°50'813.9
2019-Aug-17 09:25N 40°20' W 073°46'1018.0
2019-Aug-17 08:51N 40°10' W 073°45'814.1
2019-Aug-17 08:19N 40°02' W 073°44'514.6
2019-Aug-17 08:00N 39°58' W 073°44'714.7
2019-Aug-17 07:30N 39°50' W 073°43'714.9
2019-Aug-17 07:01N 39°43' W 073°42'714.4
2019-Aug-17 06:30N 39°35' W 073°43'714.2
2019-Aug-17 06:00N 39°29' W 073°44'914.3
2019-Aug-17 05:21N 39°19' W 073°45'714.5
2019-Aug-17 04:54N 39°13' W 073°46'614.4
2019-Aug-17 04:30N 39°07' W 073°48'814.3
2019-Aug-17 03:58N 38°60' W 073°49'714.3
2019-Aug-17 03:30N 38°53' W 073°50'1114.5
2019-Aug-17 02:43N 38°42' W 073°53'314.7
2019-Aug-17 02:30N 38°39' W 073°54'714.6
2019-Aug-17 02:00N 38°31' W 073°54'1414.8
2019-Aug-17 01:04N 38°18' W 073°57'  
2019-Aug-13 07:52N 26°40' W 079°17'28910.0
2019-Aug-12 03:06N 31°28' W 079°38'53420.3
2019-Aug-11 00:51N 39°06' W 074°02'821.0
2019-Aug-11 00:29N 39°13' W 073°60'1021.3
2019-Aug-11 00:00N 39°24' W 073°57'1121.4
2019-Aug-10 23:30N 39°34' W 073°55'1121.5
2019-Aug-10 23:00N 39°44' W 073°52'1121.5
2019-Aug-10 22:30N 39°55' W 073°51'2621.9
2019-Aug-10 21:19N 40°21' W 073°49'815.0
2019-Aug-10 20:49N 40°28' W 073°52'517.6
2019-Aug-10 20:30N 40°31' W 073°59'816.3
2019-Aug-10 20:00N 40°38' W 074°03'612.4
2019-Aug-10 19:30N 40°44' W 074°01'2 0.3
2019-Aug-10 11:30N 40°46' W 073°60'1 1.9
2019-Aug-10 11:00N 40°45' W 074°01'511.0
2019-Aug-10 10:30N 40°40' W 074°03'714.8
2019-Aug-10 10:00N 40°33' W 074°02'917.9
2019-Aug-10 09:30N 40°28' W 073°51'712.9
2019-Aug-10 09:00N 40°23' W 073°47'2315.4
2019-Aug-10 07:31N 39°60' W 073°44'015.9
2019-Aug-10 07:30N 39°60' W 073°44'918.4
2019-Aug-10 07:00N 39°50' W 073°43'918.6
2019-Aug-10 06:30N 39°41' W 073°42'918.6
2019-Aug-10 06:01N 39°32' W 073°43'1018.7
2019-Aug-10 05:30N 39°23' W 073°45'918.8
2019-Aug-10 05:00N 39°13' W 073°47'918.1
2019-Aug-10 04:30N 39°04' W 073°48'714.4
2019-Aug-10 04:00N 38°57' W 073°50'3714.6
2019-Aug-10 01:27N 38°20' W 073°57'  

Dump ship's entire track history